sensor_id;sensor_type;location;lat;lon;timestamp;P1;durP1;ratioP1;P2;durP2;ratioP2
51636;SDS011;37713;53.254;6.460;2022-12-29T00:02:20;8.73;;;5.38;;
51636;SDS011;37713;53.254;6.460;2022-12-29T00:04:46;7.53;;;5.55;;
51636;SDS011;37713;53.254;6.460;2022-12-29T00:07:11;9.02;;;5.60;;
51636;SDS011;37713;53.254;6.460;2022-12-29T00:09:37;7.95;;;5.28;;
51636;SDS011;37713;53.254;6.460;2022-12-29T00:12:04;8.35;;;5.80;;
51636;SDS011;37713;53.254;6.460;2022-12-29T00:14:30;7.45;;;5.43;;
51636;SDS011;37713;53.254;6.460;2022-12-29T00:17:14;7.60;;;5.50;;
51636;SDS011;37713;53.254;6.460;2022-12-29T00:19:40;8.35;;;5.60;;
51636;SDS011;37713;53.254;6.460;2022-12-29T00:22:25;7.97;;;4.72;;
51636;SDS011;37713;53.254;6.460;2022-12-29T00:25:10;8.77;;;4.80;;
51636;SDS011;37713;53.254;6.460;2022-12-29T00:27:55;8.90;;;4.53;;
51636;SDS011;37713;53.254;6.460;2022-12-29T00:30:39;6.78;;;4.55;;
51636;SDS011;37713;53.254;6.460;2022-12-29T00:33:33;7.07;;;4.50;;
51636;SDS011;37713;53.254;6.460;2022-12-29T00:38:56;6.57;;;4.40;;
51636;SDS011;37713;53.254;6.460;2022-12-29T00:41:47;8.43;;;4.35;;
51636;SDS011;37713;53.254;6.460;2022-12-29T00:44:31;6.88;;;4.65;;
51636;SDS011;37713;53.254;6.460;2022-12-29T00:46:57;7.18;;;4.63;;
51636;SDS011;37713;53.254;6.460;2022-12-29T00:49:28;8.27;;;5.07;;
51636;SDS011;37713;53.254;6.460;2022-12-29T00:52:02;7.90;;;4.93;;
51636;SDS011;37713;53.254;6.460;2022-12-29T00:54:38;7.60;;;5.10;;
51636;SDS011;37713;53.254;6.460;2022-12-29T00:57:06;6.57;;;4.65;;
51636;SDS011;37713;53.254;6.460;2022-12-29T00:59:35;7.32;;;4.35;;
51636;SDS011;37713;53.254;6.460;2022-12-29T01:02:02;6.45;;;4.60;;
51636;SDS011;37713;53.254;6.460;2022-12-29T01:04:27;6.75;;;4.50;;
51636;SDS011;37713;53.254;6.460;2022-12-29T01:06:53;7.78;;;4.90;;
51636;SDS011;37713;53.254;6.460;2022-12-29T01:09:19;8.23;;;5.03;;
51636;SDS011;37713;53.254;6.460;2022-12-29T01:12:05;7.47;;;5.00;;
51636;SDS011;37713;53.254;6.460;2022-12-29T01:14:31;9.48;;;4.72;;
51636;SDS011;37713;53.254;6.460;2022-12-29T01:16:57;7.65;;;4.90;;
51636;SDS011;37713;53.254;6.460;2022-12-29T01:19:24;8.68;;;4.82;;
51636;SDS011;37713;53.254;6.460;2022-12-29T01:21:50;7.72;;;4.90;;
51636;SDS011;37713;53.254;6.460;2022-12-29T01:24:17;8.70;;;4.72;;
51636;SDS011;37713;53.254;6.460;2022-12-29T01:26:44;7.05;;;5.10;;
51636;SDS011;37713;53.254;6.460;2022-12-29T01:29:10;7.53;;;5.00;;
51636;SDS011;37713;53.254;6.460;2022-12-29T01:31:37;7.97;;;4.90;;
51636;SDS011;37713;53.254;6.460;2022-12-29T01:34:03;8.25;;;5.07;;
51636;SDS011;37713;53.254;6.460;2022-12-29T01:36:29;7.95;;;5.40;;
51636;SDS011;37713;53.254;6.460;2022-12-29T01:38:56;7.97;;;5.18;;
51636;SDS011;37713;53.254;6.460;2022-12-29T01:41:22;10.07;;;4.85;;
51636;SDS011;37713;53.254;6.460;2022-12-29T01:43:49;8.65;;;4.90;;
51636;SDS011;37713;53.254;6.460;2022-12-29T01:48:51;8.93;;;4.70;;
51636;SDS011;37713;53.254;6.460;2022-12-29T01:51:21;7.82;;;5.07;;
51636;SDS011;37713;53.254;6.460;2022-12-29T01:53:49;7.65;;;5.13;;
51636;SDS011;37713;53.254;6.460;2022-12-29T01:56:16;7.95;;;4.90;;
51636;SDS011;37713;53.254;6.460;2022-12-29T01:58:46;7.70;;;5.13;;
51636;SDS011;37713;53.254;6.460;2022-12-29T02:01:17;8.30;;;5.07;;
51636;SDS011;37713;53.254;6.460;2022-12-29T02:03:45;8.98;;;4.88;;
51636;SDS011;37713;53.254;6.460;2022-12-29T02:06:17;7.63;;;5.10;;
51636;SDS011;37713;53.254;6.460;2022-12-29T02:08:49;10.05;;;5.50;;
51636;SDS011;37713;53.254;6.460;2022-12-29T02:11:17;7.65;;;5.03;;
51636;SDS011;37713;53.254;6.460;2022-12-29T02:13:44;10.50;;;5.90;;
51636;SDS011;37713;53.254;6.460;2022-12-29T02:16:16;7.95;;;5.25;;
51636;SDS011;37713;53.254;6.460;2022-12-29T02:41:31;7.68;;;4.20;;
51636;SDS011;37713;53.254;6.460;2022-12-29T02:44:12;7.43;;;4.30;;
51636;SDS011;37713;53.254;6.460;2022-12-29T02:46:53;8.05;;;3.85;;
51636;SDS011;37713;53.254;6.460;2022-12-29T02:49:51;9.13;;;3.80;;
51636;SDS011;37713;53.254;6.460;2022-12-29T02:52:30;7.50;;;3.43;;
51636;SDS011;37713;53.254;6.460;2022-12-29T02:55:10;7.43;;;3.65;;
51636;SDS011;37713;53.254;6.460;2022-12-29T02:57:37;7.50;;;3.40;;
51636;SDS011;37713;53.254;6.460;2022-12-29T03:00:04;6.70;;;3.22;;
51636;SDS011;37713;53.254;6.460;2022-12-29T03:07:43;6.72;;;3.08;;
51636;SDS011;37713;53.254;6.460;2022-12-29T03:16:24;3.33;;;1.70;;
51636;SDS011;37713;53.254;6.460;2022-12-29T03:19:00;4.93;;;1.98;;
51636;SDS011;37713;53.254;6.460;2022-12-29T03:21:34;6.47;;;2.05;;
51636;SDS011;37713;53.254;6.460;2022-12-29T03:24:24;4.40;;;1.90;;
51636;SDS011;37713;53.254;6.460;2022-12-29T03:26:54;4.28;;;2.10;;
51636;SDS011;37713;53.254;6.460;2022-12-29T03:29:22;6.15;;;2.17;;
51636;SDS011;37713;53.254;6.460;2022-12-29T03:31:50;8.77;;;1.70;;
51636;SDS011;37713;53.254;6.460;2022-12-29T03:34:19;5.57;;;1.65;;
51636;SDS011;37713;53.254;6.460;2022-12-29T03:36:58;7.93;;;2.38;;
51636;SDS011;37713;53.254;6.460;2022-12-29T03:39:28;5.75;;;1.70;;
51636;SDS011;37713;53.254;6.460;2022-12-29T03:42:01;4.97;;;1.80;;
51636;SDS011;37713;53.254;6.460;2022-12-29T03:44:35;6.07;;;1.77;;
51636;SDS011;37713;53.254;6.460;2022-12-29T03:47:03;5.43;;;1.65;;
51636;SDS011;37713;53.254;6.460;2022-12-29T03:49:29;4.07;;;1.65;;
51636;SDS011;37713;53.254;6.460;2022-12-29T03:51:55;6.45;;;1.80;;
51636;SDS011;37713;53.254;6.460;2022-12-29T03:54:21;7.00;;;1.80;;
51636;SDS011;37713;53.254;6.460;2022-12-29T03:56:46;4.85;;;1.90;;
51636;SDS011;37713;53.254;6.460;2022-12-29T03:59:12;3.45;;;1.60;;
51636;SDS011;37713;53.254;6.460;2022-12-29T04:01:38;8.02;;;1.77;;
51636;SDS011;37713;53.254;6.460;2022-12-29T04:04:04;5.78;;;2.03;;
51636;SDS011;37713;53.254;6.460;2022-12-29T04:06:29;5.43;;;1.95;;
51636;SDS011;37713;53.254;6.460;2022-12-29T04:08:55;4.97;;;1.83;;
51636;SDS011;37713;53.254;6.460;2022-12-29T04:11:22;8.02;;;2.05;;
51636;SDS011;37713;53.254;6.460;2022-12-29T04:13:48;5.03;;;2.13;;
51636;SDS011;37713;53.254;6.460;2022-12-29T04:16:14;4.65;;;1.60;;
51636;SDS011;37713;53.254;6.460;2022-12-29T04:18:40;5.63;;;1.70;;
51636;SDS011;37713;53.254;6.460;2022-12-29T04:21:05;5.20;;;1.77;;
51636;SDS011;37713;53.254;6.460;2022-12-29T04:23:33;9.68;;;1.90;;
51636;SDS011;37713;53.254;6.460;2022-12-29T04:26:00;4.72;;;1.35;;
51636;SDS011;37713;53.254;6.460;2022-12-29T04:28:27;5.82;;;1.50;;
51636;SDS011;37713;53.254;6.460;2022-12-29T04:30:53;5.72;;;1.50;;
51636;SDS011;37713;53.254;6.460;2022-12-29T04:33:22;3.65;;;1.35;;
51636;SDS011;37713;53.254;6.460;2022-12-29T04:35:48;5.05;;;1.20;;
51636;SDS011;37713;53.254;6.460;2022-12-29T04:38:14;6.15;;;1.10;;
51636;SDS011;37713;53.254;6.460;2022-12-29T04:40:41;4.07;;;1.15;;
51636;SDS011;37713;53.254;6.460;2022-12-29T04:43:08;9.32;;;1.60;;
51636;SDS011;37713;53.254;6.460;2022-12-29T04:45:35;6.93;;;1.08;;
51636;SDS011;37713;53.254;6.460;2022-12-29T04:48:01;12.35;;;1.85;;
51636;SDS011;37713;53.254;6.460;2022-12-29T04:50:27;12.05;;;1.52;;
51636;SDS011;37713;53.254;6.460;2022-12-29T04:52:53;7.88;;;1.10;;
51636;SDS011;37713;53.254;6.460;2022-12-29T04:55:19;10.93;;;1.25;;
51636;SDS011;37713;53.254;6.460;2022-12-29T04:57:45;8.20;;;1.20;;
51636;SDS011;37713;53.254;6.460;2022-12-29T05:00:11;7.82;;;0.98;;
51636;SDS011;37713;53.254;6.460;2022-12-29T05:02:38;8.38;;;1.10;;
51636;SDS011;37713;53.254;6.460;2022-12-29T05:05:05;7.00;;;0.95;;
51636;SDS011;37713;53.254;6.460;2022-12-29T05:07:31;12.73;;;1.80;;
51636;SDS011;37713;53.254;6.460;2022-12-29T05:09:58;9.73;;;1.50;;
51636;SDS011;37713;53.254;6.460;2022-12-29T05:12:24;10.23;;;1.80;;
51636;SDS011;37713;53.254;6.460;2022-12-29T05:14:50;12.13;;;1.20;;
51636;SDS011;37713;53.254;6.460;2022-12-29T05:17:16;10.75;;;1.50;;
51636;SDS011;37713;53.254;6.460;2022-12-29T05:19:44;11.00;;;1.23;;
51636;SDS011;37713;53.254;6.460;2022-12-29T05:22:10;8.60;;;1.45;;
51636;SDS011;37713;53.254;6.460;2022-12-29T05:24:36;8.18;;;1.55;;
51636;SDS011;37713;53.254;6.460;2022-12-29T05:27:02;10.05;;;1.45;;
51636;SDS011;37713;53.254;6.460;2022-12-29T05:29:28;9.25;;;1.65;;
51636;SDS011;37713;53.254;6.460;2022-12-29T05:31:53;9.30;;;1.70;;
51636;SDS011;37713;53.254;6.460;2022-12-29T05:34:19;7.38;;;1.40;;
51636;SDS011;37713;53.254;6.460;2022-12-29T05:36:45;9.57;;;1.50;;
51636;SDS011;37713;53.254;6.460;2022-12-29T05:39:11;13.73;;;1.95;;
51636;SDS011;37713;53.254;6.460;2022-12-29T05:41:37;11.40;;;2.55;;
51636;SDS011;37713;53.254;6.460;2022-12-29T05:44:02;11.35;;;1.83;;
51636;SDS011;37713;53.254;6.460;2022-12-29T05:46:28;9.15;;;1.50;;
51636;SDS011;37713;53.254;6.460;2022-12-29T05:48:55;7.45;;;1.75;;
51636;SDS011;37713;53.254;6.460;2022-12-29T05:51:20;13.50;;;2.03;;
51636;SDS011;37713;53.254;6.460;2022-12-29T05:53:46;11.90;;;2.00;;
51636;SDS011;37713;53.254;6.460;2022-12-29T05:56:12;11.18;;;2.10;;
51636;SDS011;37713;53.254;6.460;2022-12-29T05:58:38;12.60;;;2.33;;
51636;SDS011;37713;53.254;6.460;2022-12-29T06:01:03;11.70;;;2.15;;
51636;SDS011;37713;53.254;6.460;2022-12-29T06:03:29;11.73;;;2.10;;
51636;SDS011;37713;53.254;6.460;2022-12-29T06:05:55;8.93;;;1.73;;
51636;SDS011;37713;53.254;6.460;2022-12-29T06:08:21;12.27;;;1.98;;
51636;SDS011;37713;53.254;6.460;2022-12-29T06:10:47;15.55;;;2.00;;
51636;SDS011;37713;53.254;6.460;2022-12-29T06:13:13;6.45;;;1.85;;
51636;SDS011;37713;53.254;6.460;2022-12-29T06:15:39;12.77;;;2.50;;
51636;SDS011;37713;53.254;6.460;2022-12-29T06:18:05;12.68;;;1.85;;
51636;SDS011;37713;53.254;6.460;2022-12-29T06:20:31;15.50;;;2.30;;
51636;SDS011;37713;53.254;6.460;2022-12-29T06:22:56;14.20;;;2.30;;
51636;SDS011;37713;53.254;6.460;2022-12-29T06:25:22;9.73;;;1.77;;
51636;SDS011;37713;53.254;6.460;2022-12-29T06:27:49;15.40;;;1.98;;
51636;SDS011;37713;53.254;6.460;2022-12-29T06:30:14;12.50;;;2.20;;
51636;SDS011;37713;53.254;6.460;2022-12-29T06:32:42;12.55;;;1.98;;
51636;SDS011;37713;53.254;6.460;2022-12-29T06:35:08;15.10;;;1.75;;
51636;SDS011;37713;53.254;6.460;2022-12-29T06:37:34;12.63;;;2.17;;
51636;SDS011;37713;53.254;6.460;2022-12-29T06:40:01;12.30;;;2.28;;
51636;SDS011;37713;53.254;6.460;2022-12-29T06:42:27;15.15;;;2.10;;
51636;SDS011;37713;53.254;6.460;2022-12-29T06:44:53;11.85;;;2.10;;
51636;SDS011;37713;53.254;6.460;2022-12-29T06:47:21;13.65;;;2.30;;
51636;SDS011;37713;53.254;6.460;2022-12-29T06:49:47;17.25;;;2.25;;
51636;SDS011;37713;53.254;6.460;2022-12-29T06:52:13;13.05;;;2.53;;
51636;SDS011;37713;53.254;6.460;2022-12-29T06:54:39;15.18;;;2.28;;
51636;SDS011;37713;53.254;6.460;2022-12-29T06:57:05;17.63;;;2.05;;
51636;SDS011;37713;53.254;6.460;2022-12-29T06:59:31;19.13;;;2.88;;
51636;SDS011;37713;53.254;6.460;2022-12-29T07:01:57;20.45;;;2.20;;
51636;SDS011;37713;53.254;6.460;2022-12-29T07:04:23;16.48;;;2.50;;
51636;SDS011;37713;53.254;6.460;2022-12-29T07:06:49;15.15;;;2.15;;
51636;SDS011;37713;53.254;6.460;2022-12-29T07:09:15;11.65;;;2.33;;
51636;SDS011;37713;53.254;6.460;2022-12-29T07:11:41;15.77;;;2.40;;
51636;SDS011;37713;53.254;6.460;2022-12-29T07:14:07;15.13;;;2.30;;
51636;SDS011;37713;53.254;6.460;2022-12-29T07:16:32;13.90;;;1.98;;
51636;SDS011;37713;53.254;6.460;2022-12-29T07:18:59;11.48;;;1.77;;
51636;SDS011;37713;53.254;6.460;2022-12-29T07:21:25;13.63;;;2.63;;
51636;SDS011;37713;53.254;6.460;2022-12-29T07:23:51;12.98;;;1.77;;
51636;SDS011;37713;53.254;6.460;2022-12-29T07:26:16;15.27;;;2.33;;
51636;SDS011;37713;53.254;6.460;2022-12-29T07:28:43;16.67;;;2.10;;
51636;SDS011;37713;53.254;6.460;2022-12-29T07:31:19;19.77;;;2.65;;
51636;SDS011;37713;53.254;6.460;2022-12-29T07:33:47;16.00;;;2.15;;
51636;SDS011;37713;53.254;6.460;2022-12-29T07:36:14;14.32;;;2.30;;
51636;SDS011;37713;53.254;6.460;2022-12-29T07:38:41;14.93;;;2.08;;
51636;SDS011;37713;53.254;6.460;2022-12-29T07:41:08;10.20;;;2.15;;
51636;SDS011;37713;53.254;6.460;2022-12-29T07:43:34;16.95;;;2.72;;
51636;SDS011;37713;53.254;6.460;2022-12-29T07:46:00;20.70;;;2.53;;
51636;SDS011;37713;53.254;6.460;2022-12-29T07:48:26;15.13;;;1.80;;
51636;SDS011;37713;53.254;6.460;2022-12-29T07:50:52;11.80;;;1.73;;
51636;SDS011;37713;53.254;6.460;2022-12-29T07:53:19;11.73;;;1.98;;
51636;SDS011;37713;53.254;6.460;2022-12-29T07:55:45;12.43;;;1.95;;
51636;SDS011;37713;53.254;6.460;2022-12-29T07:58:10;14.70;;;2.00;;
51636;SDS011;37713;53.254;6.460;2022-12-29T08:00:37;14.50;;;2.88;;
51636;SDS011;37713;53.254;6.460;2022-12-29T08:03:04;8.75;;;2.05;;
51636;SDS011;37713;53.254;6.460;2022-12-29T08:05:30;14.48;;;2.42;;
51636;SDS011;37713;53.254;6.460;2022-12-29T08:07:57;10.50;;;2.03;;
51636;SDS011;37713;53.254;6.460;2022-12-29T08:10:23;12.70;;;2.08;;
51636;SDS011;37713;53.254;6.460;2022-12-29T08:12:49;10.63;;;2.22;;
51636;SDS011;37713;53.254;6.460;2022-12-29T08:15:15;9.73;;;2.22;;
51636;SDS011;37713;53.254;6.460;2022-12-29T08:17:41;17.80;;;2.28;;
51636;SDS011;37713;53.254;6.460;2022-12-29T08:20:07;18.88;;;2.13;;
51636;SDS011;37713;53.254;6.460;2022-12-29T08:22:33;20.40;;;2.67;;
51636;SDS011;37713;53.254;6.460;2022-12-29T08:24:59;13.35;;;2.58;;
51636;SDS011;37713;53.254;6.460;2022-12-29T08:27:25;18.33;;;2.38;;
51636;SDS011;37713;53.254;6.460;2022-12-29T08:29:51;17.20;;;2.42;;
51636;SDS011;37713;53.254;6.460;2022-12-29T08:32:17;17.52;;;2.55;;
51636;SDS011;37713;53.254;6.460;2022-12-29T08:34:43;16.10;;;2.42;;
51636;SDS011;37713;53.254;6.460;2022-12-29T08:37:09;16.65;;;2.85;;
51636;SDS011;37713;53.254;6.460;2022-12-29T08:39:35;18.65;;;2.92;;
51636;SDS011;37713;53.254;6.460;2022-12-29T08:42:01;14.60;;;2.92;;
51636;SDS011;37713;53.254;6.460;2022-12-29T08:44:27;15.30;;;2.67;;
51636;SDS011;37713;53.254;6.460;2022-12-29T08:46:53;12.98;;;2.28;;
51636;SDS011;37713;53.254;6.460;2022-12-29T08:49:19;18.92;;;2.38;;
51636;SDS011;37713;53.254;6.460;2022-12-29T08:51:45;16.95;;;2.80;;
51636;SDS011;37713;53.254;6.460;2022-12-29T08:54:11;23.67;;;3.55;;
51636;SDS011;37713;53.254;6.460;2022-12-29T08:56:37;15.07;;;2.30;;
51636;SDS011;37713;53.254;6.460;2022-12-29T08:59:03;18.48;;;2.50;;
51636;SDS011;37713;53.254;6.460;2022-12-29T09:01:29;16.02;;;2.38;;
51636;SDS011;37713;53.254;6.460;2022-12-29T09:03:56;17.42;;;2.78;;
51636;SDS011;37713;53.254;6.460;2022-12-29T09:06:21;23.40;;;3.03;;
51636;SDS011;37713;53.254;6.460;2022-12-29T09:08:47;16.35;;;2.47;;
51636;SDS011;37713;53.254;6.460;2022-12-29T09:11:21;18.13;;;2.92;;
51636;SDS011;37713;53.254;6.460;2022-12-29T09:13:52;14.60;;;2.50;;
51636;SDS011;37713;53.254;6.460;2022-12-29T09:16:19;21.20;;;3.17;;
51636;SDS011;37713;53.254;6.460;2022-12-29T09:18:46;15.60;;;2.58;;
51636;SDS011;37713;53.254;6.460;2022-12-29T09:21:12;20.38;;;2.67;;
51636;SDS011;37713;53.254;6.460;2022-12-29T09:23:38;22.90;;;3.42;;
51636;SDS011;37713;53.254;6.460;2022-12-29T09:26:05;18.02;;;2.78;;
51636;SDS011;37713;53.254;6.460;2022-12-29T09:28:33;18.00;;;2.72;;
51636;SDS011;37713;53.254;6.460;2022-12-29T09:30:58;15.45;;;2.47;;
51636;SDS011;37713;53.254;6.460;2022-12-29T09:33:25;17.48;;;2.95;;
51636;SDS011;37713;53.254;6.460;2022-12-29T09:35:56;21.65;;;3.03;;
51636;SDS011;37713;53.254;6.460;2022-12-29T09:38:22;18.35;;;2.60;;
51636;SDS011;37713;53.254;6.460;2022-12-29T09:40:53;14.65;;;2.22;;
51636;SDS011;37713;53.254;6.460;2022-12-29T09:46:06;13.10;;;2.13;;
51636;SDS011;37713;53.254;6.460;2022-12-29T09:48:39;20.02;;;3.28;;
51636;SDS011;37713;53.254;6.460;2022-12-29T09:51:11;16.98;;;3.10;;
51636;SDS011;37713;53.254;6.460;2022-12-29T09:53:42;14.75;;;2.58;;
51636;SDS011;37713;53.254;6.460;2022-12-29T09:56:18;11.23;;;2.08;;
51636;SDS011;37713;53.254;6.460;2022-12-29T09:59:00;16.45;;;2.72;;
51636;SDS011;37713;53.254;6.460;2022-12-29T10:01:34;13.18;;;2.72;;
51636;SDS011;37713;53.254;6.460;2022-12-29T10:04:06;11.68;;;1.73;;
51636;SDS011;37713;53.254;6.460;2022-12-29T10:06:36;19.52;;;2.03;;
51636;SDS011;37713;53.254;6.460;2022-12-29T10:26:09;12.82;;;1.98;;
51636;SDS011;37713;53.254;6.460;2022-12-29T10:28:43;11.38;;;1.75;;
51636;SDS011;37713;53.254;6.460;2022-12-29T10:31:16;13.88;;;2.78;;
51636;SDS011;37713;53.254;6.460;2022-12-29T10:33:48;13.55;;;1.92;;
51636;SDS011;37713;53.254;6.460;2022-12-29T10:36:24;11.43;;;1.77;;
51636;SDS011;37713;53.254;6.460;2022-12-29T10:39:04;13.68;;;1.90;;
51636;SDS011;37713;53.254;6.460;2022-12-29T10:41:38;16.38;;;1.98;;
51636;SDS011;37713;53.254;6.460;2022-12-29T10:44:10;13.65;;;1.95;;
51636;SDS011;37713;53.254;6.460;2022-12-29T10:46:40;12.25;;;1.75;;
51636;SDS011;37713;53.254;6.460;2022-12-29T10:49:14;9.40;;;1.65;;
51636;SDS011;37713;53.254;6.460;2022-12-29T10:51:42;13.63;;;2.20;;
51636;SDS011;37713;53.254;6.460;2022-12-29T10:54:14;12.35;;;2.10;;
51636;SDS011;37713;53.254;6.460;2022-12-29T10:56:53;13.52;;;2.50;;
51636;SDS011;37713;53.254;6.460;2022-12-29T10:59:26;15.98;;;2.83;;
51636;SDS011;37713;53.254;6.460;2022-12-29T11:07:00;16.48;;;2.55;;
51636;SDS011;37713;53.254;6.460;2022-12-29T11:09:28;15.85;;;2.90;;
51636;SDS011;37713;53.254;6.460;2022-12-29T11:11:56;17.43;;;3.57;;
51636;SDS011;37713;53.254;6.460;2022-12-29T11:14:29;18.77;;;3.63;;
51636;SDS011;37713;53.254;6.460;2022-12-29T11:16:57;20.85;;;3.30;;
51636;SDS011;37713;53.254;6.460;2022-12-29T11:19:25;20.00;;;3.10;;
51636;SDS011;37713;53.254;6.460;2022-12-29T11:21:54;20.35;;;3.33;;
51636;SDS011;37713;53.254;6.460;2022-12-29T11:24:24;19.80;;;3.10;;
51636;SDS011;37713;53.254;6.460;2022-12-29T11:26:55;18.50;;;3.25;;
51636;SDS011;37713;53.254;6.460;2022-12-29T11:29:37;23.50;;;2.95;;
51636;SDS011;37713;53.254;6.460;2022-12-29T11:32:11;21.77;;;3.28;;
51636;SDS011;37713;53.254;6.460;2022-12-29T11:34:37;20.83;;;3.28;;
51636;SDS011;37713;53.254;6.460;2022-12-29T11:37:11;24.27;;;4.32;;
51636;SDS011;37713;53.254;6.460;2022-12-29T11:42:15;22.70;;;3.33;;
51636;SDS011;37713;53.254;6.460;2022-12-29T11:44:47;17.05;;;4.15;;
51636;SDS011;37713;53.254;6.460;2022-12-29T11:47:30;31.88;;;4.53;;
51636;SDS011;37713;53.254;6.460;2022-12-29T11:50:02;22.60;;;3.58;;
51636;SDS011;37713;53.254;6.460;2022-12-29T11:52:32;22.55;;;3.42;;
51636;SDS011;37713;53.254;6.460;2022-12-29T11:55:01;18.40;;;3.22;;
51636;SDS011;37713;53.254;6.460;2022-12-29T11:57:30;18.13;;;2.97;;
51636;SDS011;37713;53.254;6.460;2022-12-29T12:00:00;18.75;;;2.58;;
51636;SDS011;37713;53.254;6.460;2022-12-29T12:05:37;19.02;;;2.67;;
51636;SDS011;37713;53.254;6.460;2022-12-29T12:08:48;20.98;;;2.80;;
51636;SDS011;37713;53.254;6.460;2022-12-29T12:11:22;22.58;;;3.22;;
51636;SDS011;37713;53.254;6.460;2022-12-29T12:14:00;20.10;;;2.80;;
51636;SDS011;37713;53.254;6.460;2022-12-29T12:16:47;16.83;;;3.30;;
51636;SDS011;37713;53.254;6.460;2022-12-29T12:22:11;19.10;;;3.08;;
51636;SDS011;37713;53.254;6.460;2022-12-29T12:27:20;12.85;;;2.05;;
51636;SDS011;37713;53.254;6.460;2022-12-29T12:29:58;12.57;;;2.05;;
51636;SDS011;37713;53.254;6.460;2022-12-29T12:36:04;12.25;;;2.30;;
51636;SDS011;37713;53.254;6.460;2022-12-29T12:40:53;10.25;;;1.60;;
51636;SDS011;37713;53.254;6.460;2022-12-29T12:43:39;8.95;;;1.50;;
51636;SDS011;37713;53.254;6.460;2022-12-29T12:55:18;12.00;;;1.88;;
51636;SDS011;37713;53.254;6.460;2022-12-29T13:03:23;11.65;;;1.60;;
51636;SDS011;37713;53.254;6.460;2022-12-29T13:08:32;10.80;;;1.90;;
51636;SDS011;37713;53.254;6.460;2022-12-29T13:14:19;15.27;;;1.80;;
51636;SDS011;37713;53.254;6.460;2022-12-29T13:25:03;11.02;;;1.67;;
51636;SDS011;37713;53.254;6.460;2022-12-29T13:30:09;7.13;;;1.65;;
51636;SDS011;37713;53.254;6.460;2022-12-29T13:43:44;15.48;;;2.28;;
51636;SDS011;37713;53.254;6.460;2022-12-29T13:46:13;14.57;;;1.63;;
51636;SDS011;37713;53.254;6.460;2022-12-29T13:49:18;10.30;;;2.17;;
51636;SDS011;37713;53.254;6.460;2022-12-29T13:51:36;9.98;;;1.73;;
51636;SDS011;37713;53.254;6.460;2022-12-29T13:56:52;13.15;;;2.50;;
51636;SDS011;37713;53.254;6.460;2022-12-29T14:07:43;9.57;;;1.45;;
51636;SDS011;37713;53.254;6.460;2022-12-29T14:13:05;13.02;;;2.08;;
51636;SDS011;37713;53.254;6.460;2022-12-29T14:15:42;13.30;;;1.60;;
51636;SDS011;37713;53.254;6.460;2022-12-29T14:18:11;8.60;;;1.23;;
51636;SDS011;37713;53.254;6.460;2022-12-29T14:20:56;16.70;;;7.80;;
51636;SDS011;37713;53.254;6.460;2022-12-29T14:28:31;11.00;;;1.80;;
51636;SDS011;37713;53.254;6.460;2022-12-29T14:30:59;10.88;;;1.73;;
51636;SDS011;37713;53.254;6.460;2022-12-29T14:33:30;9.00;;;1.45;;
51636;SDS011;37713;53.254;6.460;2022-12-29T14:38:59;9.90;;;1.83;;
51636;SDS011;37713;53.254;6.460;2022-12-29T14:41:40;14.50;;;2.40;;
51636;SDS011;37713;53.254;6.460;2022-12-29T14:49:21;14.15;;;3.60;;
51636;SDS011;37713;53.254;6.460;2022-12-29T14:52:12;12.77;;;2.78;;
51636;SDS011;37713;53.254;6.460;2022-12-29T14:54:45;10.40;;;1.73;;
51636;SDS011;37713;53.254;6.460;2022-12-29T14:57:22;11.40;;;2.17;;
51636;SDS011;37713;53.254;6.460;2022-12-29T14:59:54;10.85;;;1.90;;
51636;SDS011;37713;53.254;6.460;2022-12-29T15:02:26;8.20;;;1.67;;
51636;SDS011;37713;53.254;6.460;2022-12-29T15:04:59;14.32;;;2.70;;
51636;SDS011;37713;53.254;6.460;2022-12-29T15:07:26;12.93;;;2.25;;
51636;SDS011;37713;53.254;6.460;2022-12-29T15:09:56;14.50;;;2.90;;
51636;SDS011;37713;53.254;6.460;2022-12-29T15:14:59;17.10;;;5.30;;
51636;SDS011;37713;53.254;6.460;2022-12-29T15:17:26;14.77;;;3.22;;
51636;SDS011;37713;53.254;6.460;2022-12-29T15:19:53;16.35;;;2.30;;
51636;SDS011;37713;53.254;6.460;2022-12-29T15:22:21;13.77;;;3.05;;
51636;SDS011;37713;53.254;6.460;2022-12-29T15:24:49;16.98;;;3.95;;
51636;SDS011;37713;53.254;6.460;2022-12-29T15:27:19;16.45;;;3.35;;
51636;SDS011;37713;53.254;6.460;2022-12-29T15:30:02;20.67;;;9.13;;
51636;SDS011;37713;53.254;6.460;2022-12-29T15:32:41;16.27;;;3.15;;
51636;SDS011;37713;53.254;6.460;2022-12-29T15:35:22;11.90;;;2.47;;
51636;SDS011;37713;53.254;6.460;2022-12-29T15:37:48;15.40;;;2.17;;
51636;SDS011;37713;53.254;6.460;2022-12-29T15:40:27;14.77;;;2.05;;
51636;SDS011;37713;53.254;6.460;2022-12-29T15:43:10;10.50;;;1.92;;
51636;SDS011;37713;53.254;6.460;2022-12-29T15:45:52;13.32;;;2.22;;
51636;SDS011;37713;53.254;6.460;2022-12-29T15:48:24;13.93;;;2.22;;
51636;SDS011;37713;53.254;6.460;2022-12-29T15:50:50;11.05;;;2.17;;
51636;SDS011;37713;53.254;6.460;2022-12-29T15:53:21;19.42;;;2.13;;
51636;SDS011;37713;53.254;6.460;2022-12-29T15:55:53;13.80;;;3.53;;
51636;SDS011;37713;53.254;6.460;2022-12-29T15:58:26;18.50;;;5.45;;
51636;SDS011;37713;53.254;6.460;2022-12-29T16:00:59;18.38;;;4.35;;
51636;SDS011;37713;53.254;6.460;2022-12-29T16:03:27;15.68;;;4.88;;
51636;SDS011;37713;53.254;6.460;2022-12-29T16:05:57;20.30;;;4.22;;
51636;SDS011;37713;53.254;6.460;2022-12-29T16:08:35;20.42;;;6.97;;
51636;SDS011;37713;53.254;6.460;2022-12-29T16:14:12;12.10;;;2.15;;
51636;SDS011;37713;53.254;6.460;2022-12-29T16:16:41;15.95;;;2.25;;
51636;SDS011;37713;53.254;6.460;2022-12-29T16:19:19;9.02;;;1.90;;
51636;SDS011;37713;53.254;6.460;2022-12-29T16:21:52;11.25;;;2.53;;
51636;SDS011;37713;53.254;6.460;2022-12-29T16:24:19;12.23;;;1.77;;
51636;SDS011;37713;53.254;6.460;2022-12-29T16:26:54;11.18;;;1.80;;
51636;SDS011;37713;53.254;6.460;2022-12-29T16:29:32;20.58;;;2.45;;
51636;SDS011;37713;53.254;6.460;2022-12-29T16:32:00;11.25;;;3.58;;
51636;SDS011;37713;53.254;6.460;2022-12-29T16:34:32;14.10;;;2.75;;
51636;SDS011;37713;53.254;6.460;2022-12-29T16:39:52;6.63;;;1.42;;
51636;SDS011;37713;53.254;6.460;2022-12-29T16:42:43;11.40;;;2.00;;
51636;SDS011;37713;53.254;6.460;2022-12-29T16:47:44;7.95;;;2.05;;
51636;SDS011;37713;53.254;6.460;2022-12-29T16:50:12;12.00;;;2.28;;
51636;SDS011;37713;53.254;6.460;2022-12-29T16:52:46;7.78;;;1.90;;
51636;SDS011;37713;53.254;6.460;2022-12-29T16:55:15;7.68;;;1.70;;
51636;SDS011;37713;53.254;6.460;2022-12-29T16:57:43;10.55;;;1.88;;
51636;SDS011;37713;53.254;6.460;2022-12-29T17:02:46;8.32;;;1.58;;
51636;SDS011;37713;53.254;6.460;2022-12-29T17:05:15;7.40;;;1.58;;
51636;SDS011;37713;53.254;6.460;2022-12-29T17:07:42;6.80;;;1.30;;
51636;SDS011;37713;53.254;6.460;2022-12-29T17:10:09;7.78;;;1.13;;
51636;SDS011;37713;53.254;6.460;2022-12-29T17:12:35;6.00;;;1.45;;
51636;SDS011;37713;53.254;6.460;2022-12-29T17:15:05;8.23;;;1.52;;
51636;SDS011;37713;53.254;6.460;2022-12-29T17:17:53;13.75;;;5.70;;
51636;SDS011;37713;53.254;6.460;2022-12-29T17:22:52;12.55;;;2.28;;
51636;SDS011;37713;53.254;6.460;2022-12-29T17:25:19;10.23;;;2.08;;
51636;SDS011;37713;53.254;6.460;2022-12-29T17:30:18;10.95;;;1.75;;
51636;SDS011;37713;53.254;6.460;2022-12-29T17:33:20;10.88;;;1.63;;
51636;SDS011;37713;53.254;6.460;2022-12-29T17:35:40;11.38;;;2.00;;
51636;SDS011;37713;53.254;6.460;2022-12-29T17:38:15;11.57;;;2.13;;
51636;SDS011;37713;53.254;6.460;2022-12-29T17:40:42;11.90;;;2.00;;
51636;SDS011;37713;53.254;6.460;2022-12-29T17:43:08;17.80;;;2.85;;
51636;SDS011;37713;53.254;6.460;2022-12-29T17:45:38;14.30;;;3.42;;